Pagina principale
METAR-TAF:

METAR-TAF

Aeroporti :

Aeroporto di Shanghai-Pudong

Shanghai-Pudong, Cina

latitudine: 31-07N, longitudine: 121-46E, altezza: 4 m

Osservazione

Il bollettino è stato emesso 20 minuti fa, alle 23:00 UTC
Vento 10 kt da sud-est
Temperature 28°C
Umidità 84%
Pressione 1008 hPa
Visibilità 10 km o più
Poco nuvoloso ad un'altezza di 1300 ft

METAR: ZSPD 192300Z 14005MPS 9999 FEW013 28/25 Q1008 NOSIG

Ora: 07:20 (23:20 UTC)

Previsione

Il bollettino è stato emesso 7 ore e 54 minuti fa, alle 15:26 UTC
Previsione valida dal 19 alle 18 UTC al 20 alle 18 UTC
Vento 12 kt da sud-est
Visibilità: 6000 m
Nubi sparse ad un'altezza di 2000 ft

TAF: ZSPD 191526Z 1918/2018 13006MPS 6000 SCT020 TX35/2006Z TN25/1921Z

Osservazioni e previsioni meteorologiche di più di 4000 aeroporti (messaggi METAR e TAF).

Le stazioni disponibili sono rappresentate dai dischi gialli e rossi sulla carta.

Puntare il mouse per vedere il nome della stazione.

Clicca sopra per visualizzare le osservazioni e previsioni meteorologiche.

Per cambiare la mappa : fare clic sui pulsanti verdi con una croce nera per ingrandire, il pulsante verde con un trattino per diminuire, o sulla freccia verde per le mappe adiacenti.


METAR-TAF: